Time;durP1;ratioP1;P1;durP2;ratioP2;P2;SDS_P1;SDS_P2;PMS_P1;PMS_P2;Temp;Humidity;BMP_temperature;BMP_pressure;BME280_temperature;BME280_humidity;BME280_pressure;Samples;Min_cycle;Max_cycle;Signal;HPM_P1;HPM_P2
2022/03/13 00:00:49;;;;;;;22.40;13.45;;;8.20;99.90;;;;;;5114869;22;20051;-83
2022/03/13 00:03:18;;;;;;;21.67;12.57;;;7.90;99.90;;;;;;5115818;22;20442;-82
2022/03/13 00:05:46;;;;;;;21.42;13.25;;;8.00;99.90;;;;;;5115617;22;20049;-82
2022/03/13 00:08:31;;;;;;;19.95;13.00;;;7.90;99.90;;;;;;5109035;27;20035;-82
2022/03/13 00:10:59;;;;;;;21.65;12.80;;;7.90;99.90;;;;;;5108247;27;20046;-82
2022/03/13 00:13:31;;;;;;;20.67;12.43;;;7.90;99.90;;;;;;5112983;22;20044;-82
2022/03/13 00:16:03;;;;;;;22.90;13.90;;;8.00;99.90;;;;;;5114625;22;20026;-83
2022/03/13 00:18:32;;;;;;;21.02;12.75;;;8.50;99.90;;;;;;5107434;27;20045;-83
2022/03/13 00:20:58;;;;;;;21.20;13.20;;;7.80;99.90;;;;;;5108522;27;20042;-82
2022/03/13 00:23:24;;;;;;;23.17;13.38;;;8.40;99.90;;;;;;5108077;27;20049;-83
2022/03/13 00:25:49;;;;;;;22.00;13.32;;;7.70;99.90;;;;;;5115154;22;20051;-83
2022/03/13 00:28:15;;;;;;;21.35;12.73;;;8.40;99.90;;;;;;5107327;27;20058;-82
2022/03/13 00:30:41;;;;;;;20.70;13.23;;;7.70;99.90;;;;;;5108241;27;20124;-82
2022/03/13 00:33:07;;;;;;;21.17;12.70;;;7.50;99.90;;;;;;5107152;28;20487;-82
2022/03/13 00:35:34;;;;;;;19.50;12.80;;;7.60;99.90;;;;;;5096316;22;20127;-83
2022/03/13 00:37:59;;;;;;;21.15;12.98;;;7.60;99.90;;;;;;5073908;22;20068;-82
2022/03/13 00:40:26;;;;;;;20.55;12.98;;;7.60;99.90;;;;;;5100596;28;20406;-82
2022/03/13 00:42:52;;;;;;;24.10;13.10;;;8.10;99.90;;;;;;5083316;28;20056;-82
2022/03/13 00:45:18;;;;;;;19.48;12.07;;;7.50;99.90;;;;;;5093308;22;20052;-80
2022/03/13 00:47:44;;;;;;;22.48;12.68;;;7.50;99.90;;;;;;5085645;22;20102;-81
2022/03/13 00:50:10;;;;;;;21.83;13.45;;;7.80;99.90;;;;;;5099225;22;20049;-80
2022/03/13 00:52:39;;;;;;;21.75;12.60;;;7.50;99.90;;;;;;5093615;22;20451;-81
2022/03/13 00:55:05;;;;;;;20.33;12.25;;;7.90;99.90;;;;;;5098549;22;20065;-81
2022/03/13 00:57:35;;;;;;;19.55;11.98;;;7.50;99.90;;;;;;5123566;22;20450;-82
2022/03/13 01:00:00;;;;;;;20.27;12.43;;;7.50;99.90;;;;;;5134149;22;20049;-83
2022/03/13 01:02:26;;;;;;;19.75;12.10;;;8.30;99.90;;;;;;5080407;22;20080;-82
2022/03/13 01:04:52;;;;;;;22.23;12.55;;;8.10;99.90;;;;;;5063293;28;20048;-82
2022/03/13 01:07:17;;;;;;;21.65;12.50;;;8.00;99.90;;;;;;5077018;22;20075;-83
2022/03/13 01:09:43;;;;;;;21.30;12.65;;;8.40;99.90;;;;;;5074324;22;20483;-83
2022/03/13 01:12:10;;;;;;;21.80;12.52;;;8.30;99.90;;;;;;5081842;22;20135;-83
2022/03/13 01:14:36;;;;;;;20.10;11.70;;;8.40;99.90;;;;;;5071358;28;20055;-83
2022/03/13 01:17:05;;;;;;;19.45;11.80;;;8.40;99.90;;;;;;5070796;28;20112;-82
2022/03/13 01:19:31;;;;;;;20.92;12.27;;;8.80;99.90;;;;;;5087988;28;20051;-83
2022/03/13 01:21:57;;;;;;;23.23;12.23;;;8.90;99.90;;;;;;5106287;28;20040;-83
2022/03/13 01:24:29;;;;;;;22.30;11.98;;;9.00;99.90;;;;;;5098113;22;20156;-81
2022/03/13 01:27:01;;;;;;;19.45;11.68;;;8.50;99.90;;;;;;5064956;28;20059;-81
2022/03/13 01:29:32;;;;;;;19.77;11.93;;;8.60;99.90;;;;;;5064245;28;20067;-81
2022/03/13 01:31:58;;;;;;;19.73;12.50;;;8.60;99.90;;;;;;5064881;28;20044;-81
2022/03/13 01:34:35;;;;;;;19.40;12.13;;;8.50;99.90;;;;;;5074905;22;20109;-80
2022/03/13 01:37:03;;;;;;;19.50;11.35;;;8.60;99.90;;;;;;5067485;28;20059;-81
2022/03/13 01:39:29;;;;;;;18.13;11.07;;;8.60;99.90;;;;;;5067476;28;20036;-81
2022/03/13 01:41:56;;;;;;;19.02;11.65;;;9.00;99.90;;;;;;5066920;28;20138;-81
2022/03/13 01:44:21;;;;;;;18.58;11.50;;;8.50;99.90;;;;;;5081081;22;20049;-82
2022/03/13 01:46:48;;;;;;;18.50;11.35;;;9.40;99.90;;;;;;5067256;28;20475;-82
2022/03/13 01:49:15;;;;;;;20.25;11.88;;;8.90;99.90;;;;;;5078083;22;20525;-82
2022/03/13 01:51:40;;;;;;;20.27;12.60;;;8.50;99.90;;;;;;5095915;22;20054;-83
2022/03/13 01:54:11;;;;;;;18.00;11.20;;;8.90;99.90;;;;;;5110651;27;20039;-82
2022/03/13 01:56:41;;;;;;;22.02;11.80;;;8.50;99.90;;;;;;5126788;22;20382;31
2022/03/13 01:59:08;;;;;;;20.20;12.15;;;8.60;99.90;;;;;;5079899;22;20051;-83
2022/03/13 02:01:35;;;;;;;18.30;11.35;;;8.40;99.90;;;;;;5066232;28;20054;-83
2022/03/13 02:04:01;;;;;;;21.05;11.88;;;8.50;99.90;;;;;;5065788;28;20041;-83
2022/03/13 02:06:27;;;;;;;18.40;11.60;;;8.60;99.90;;;;;;5066645;28;20044;-82
2022/03/13 02:08:54;;;;;;;20.73;11.75;;;8.40;99.90;;;;;;5076573;22;21939;-82
2022/03/13 02:11:26;;;;;;;21.27;11.65;;;8.80;99.90;;;;;;5069931;28;20065;-82
2022/03/13 02:13:55;;;;;;;19.00;11.45;;;8.40;99.90;;;;;;5068800;28;20067;-82
2022/03/13 02:16:21;;;;;;;21.70;11.77;;;8.90;99.90;;;;;;5069663;28;20558;-83
2022/03/13 02:21:19;;;;;;;19.25;11.57;;;8.40;99.90;;;;;;5149441;22;20051;-81
2022/03/13 02:23:45;;;;;;;17.48;11.23;;;9.30;99.90;;;;;;5095228;22;20048;-81
2022/03/13 02:26:11;;;;;;;22.38;12.27;;;8.40;99.90;;;;;;5106792;22;20059;-81
2022/03/13 02:28:42;;;;;;;20.23;12.57;;;9.10;99.90;;;;;;5094964;22;20068;-82
2022/03/13 02:31:19;;;;;;;21.13;12.43;;;8.90;99.90;;;;;;5115949;22;20125;-81
2022/03/13 02:33:45;;;;;;;19.77;11.50;;;8.30;99.90;;;;;;5093197;22;20064;-82
2022/03/13 02:36:32;;;;;;;21.10;12.05;;;8.20;99.90;;;;;;5086916;22;20128;-83
2022/03/13 02:39:04;;;;;;;21.30;12.30;;;8.60;99.90;;;;;;5077659;22;20048;-83
2022/03/13 02:41:30;;;;;;;22.42;12.80;;;8.40;99.90;;;;;;5073933;22;20049;-83
2022/03/13 02:43:57;;;;;;;21.08;11.95;;;8.20;99.90;;;;;;5065680;28;20316;-83
2022/03/13 02:46:24;;;;;;;20.58;12.25;;;8.20;99.90;;;;;;5064994;28;20108;-83
2022/03/13 02:48:51;;;;;;;21.25;12.68;;;8.10;99.90;;;;;;5082446;28;20093;-82
2022/03/13 02:51:18;;;;;;;19.88;11.52;;;8.20;99.90;;;;;;5081488;28;20044;-83
2022/03/13 02:53:44;;;;;;;21.23;12.05;;;8.20;99.90;;;;;;5075872;22;20062;-83
2022/03/13 02:56:10;;;;;;;19.88;12.25;;;8.20;99.90;;;;;;5085631;22;20049;-83
2022/03/13 02:58:36;;;;;;;19.92;12.75;;;8.20;99.90;;;;;;5075710;22;20060;-83
2022/03/13 03:01:02;;;;;;;20.90;11.75;;;8.20;99.90;;;;;;5067828;28;20127;-82
2022/03/13 03:03:28;;;;;;;20.10;12.02;;;8.10;99.90;;;;;;5068279;28;20048;-83
2022/03/13 03:05:54;;;;;;;19.75;11.82;;;8.70;99.90;;;;;;5071951;22;20067;-82
2022/03/13 03:08:21;;;;;;;17.48;11.63;;;8.40;99.90;;;;;;5074982;22;20484;-82
2022/03/13 03:10:47;;;;;;;18.00;10.82;;;8.90;99.90;;;;;;5067776;28;20069;-83
2022/03/13 03:13:15;;;;;;;21.70;11.80;;;8.20;99.90;;;;;;5102173;28;20044;-83
2022/03/13 03:15:41;;;;;;;18.98;11.02;;;8.30;99.90;;;;;;5072838;22;20044;-83
2022/03/13 03:18:12;;;;;;;19.05;11.98;;;9.00;99.90;;;;;;5075087;22;20481;-83
2022/03/13 03:20:41;;;;;;;19.90;12.05;;;8.30;99.90;;;;;;5084951;28;20075;-83
2022/03/13 03:23:07;;;;;;;18.05;11.30;;;8.20;99.90;;;;;;5068744;28;20383;-83
2022/03/13 03:25:33;;;;;;;20.05;11.95;;;8.20;99.90;;;;;;5067986;28;20130;-83
2022/03/13 03:27:59;;;;;;;21.20;11.20;;;8.10;99.90;;;;;;5082702;22;20126;-83
2022/03/13 03:30:28;;;;;;;20.35;11.32;;;8.10;99.90;;;;;;5107492;27;20074;-83
2022/03/13 03:32:54;;;;;;;17.92;11.15;;;8.20;99.90;;;;;;5108441;27;20757;-82
2022/03/13 03:35:22;;;;;;;18.67;11.43;;;8.50;99.90;;;;;;5108174;27;20520;-83
2022/03/13 03:37:50;;;;;;;18.23;11.50;;;8.50;99.90;;;;;;5124627;27;20096;-83
2022/03/13 03:40:15;;;;;;;18.10;11.25;;;8.40;99.90;;;;;;5084650;22;20123;-82
2022/03/13 03:42:42;;;;;;;18.75;11.40;;;8.70;99.90;;;;;;5064293;28;20428;-83
2022/03/13 03:45:08;;;;;;;17.10;11.27;;;7.90;99.90;;;;;;5047376;28;20048;-82
2022/03/13 03:47:34;;;;;;;21.20;11.93;;;7.90;99.90;;;;;;5064328;28;20039;-83
2022/03/13 03:50:00;;;;;;;22.00;11.70;;;7.90;99.90;;;;;;5075670;22;20053;-83
2022/03/13 03:52:26;;;;;;;18.98;11.88;;;7.80;99.90;;;;;;5069916;28;20040;-83
2022/03/13 03:54:52;;;;;;;20.63;11.88;;;8.10;99.90;;;;;;5086009;22;20088;-81
2022/03/13 03:57:18;;;;;;;18.73;11.80;;;7.70;99.90;;;;;;5089076;22;20409;-80
2022/03/13 03:59:45;;;;;;;21.55;12.48;;;8.10;99.90;;;;;;5088209;22;20482;-81
2022/03/13 04:02:11;;;;;;;20.35;12.15;;;7.60;99.90;;;;;;5095396;22;20098;-81
2022/03/13 04:04:37;;;;;;;21.17;12.55;;;7.60;99.90;;;;;;5078888;22;20064;-81
2022/03/13 04:07:03;;;;;;;22.35;12.85;;;8.10;99.90;;;;;;5124257;22;20051;-80
2022/03/13 04:09:28;;;;;;;20.75;12.52;;;7.50;99.90;;;;;;5077359;22;20163;-82
2022/03/13 04:11:54;;;;;;;24.27;13.02;;;7.50;99.90;;;;;;5096972;22;20036;-83
2022/03/13 04:14:21;;;;;;;23.98;13.27;;;7.40;99.90;;;;;;5068454;22;20079;-82
2022/03/13 04:16:47;;;;;;;23.40;12.93;;;7.40;99.90;;;;;;5072831;22;20052;-83
2022/03/13 04:19:13;;;;;;;21.40;13.20;;;7.50;99.90;;;;;;5068297;28;20363;-83
2022/03/13 04:21:41;;;;;;;22.55;12.32;;;7.30;99.90;;;;;;5068025;28;20080;-83
2022/03/13 04:24:13;;;;;;;20.80;12.85;;;7.40;99.90;;;;;;5067281;28;20079;-82
2022/03/13 04:26:40;;;;;;;21.10;13.15;;;7.20;99.90;;;;;;5067126;28;20047;-83
2022/03/13 04:29:09;;;;;;;25.45;13.27;;;7.60;99.90;;;;;;5068158;28;20116;-83
2022/03/13 04:31:39;;;;;;;22.92;13.80;;;7.30;99.90;;;;;;5066720;28;20044;-83
2022/03/13 04:34:05;;;;;;;21.13;12.90;;;7.10;99.90;;;;;;5067790;28;20048;-83
2022/03/13 04:36:35;;;;;;;22.17;13.68;;;7.20;99.90;;;;;;5099376;22;20044;-83
2022/03/13 04:39:02;;;;;;;20.85;13.02;;;7.10;99.90;;;;;;5071726;22;20060;-83
2022/03/13 04:41:28;;;;;;;22.35;12.85;;;7.50;99.90;;;;;;5064159;28;20067;-82
2022/03/13 04:43:55;;;;;;;21.67;13.65;;;7.40;99.90;;;;;;5077446;22;20048;-83
2022/03/13 04:46:20;;;;;;;22.63;12.82;;;7.10;99.90;;;;;;5126426;27;20106;-83
2022/03/13 04:48:48;;;;;;;25.50;13.98;;;7.40;99.90;;;;;;5121569;22;20093;-83
2022/03/13 04:51:14;;;;;;;22.40;13.43;;;7.90;99.90;;;;;;5092912;22;20052;-83
2022/03/13 04:53:40;;;;;;;22.95;12.80;;;7.50;99.90;;;;;;5080777;22;20058;-83
2022/03/13 04:56:06;;;;;;;23.77;13.93;;;7.60;99.90;;;;;;5073495;28;20072;-83
2022/03/13 04:58:32;;;;;;;23.70;13.60;;;7.10;99.90;;;;;;5076577;22;20950;-83
2022/03/13 05:00:57;;;;;;;25.23;13.60;;;6.60;99.90;;;;;;5094198;22;20055;-82
2022/03/13 05:03:24;;;;;;;23.52;13.40;;;8.00;99.90;;;;;;5114383;27;20045;-83
2022/03/13 05:05:50;;;;;;;24.25;13.23;;;6.80;99.90;;;;;;5154857;22;20118;-82
2022/03/13 05:08:16;;;;;;;21.55;12.10;;;8.30;99.90;;;;;;5114960;22;20105;-80
2022/03/13 05:10:45;;;;;;;22.05;12.57;;;7.30;99.90;;;;;;5085194;22;20051;-81
2022/03/13 05:13:16;;;;;;;21.33;12.15;;;7.40;99.90;;;;;;5089885;22;20104;-81
2022/03/13 05:15:44;;;;;;;21.90;12.52;;;8.00;99.90;;;;;;5073403;22;20052;-81
2022/03/13 05:18:10;;;;;;;20.73;12.18;;;7.60;99.90;;;;;;5062180;28;20044;-79
2022/03/13 05:23:03;;;;;;;21.38;12.30;;;7.70;99.90;;;;;;5165867;22;20112;-80
2022/03/13 05:25:30;;;;;;;20.50;11.95;;;8.30;99.90;;;;;;5130187;27;20047;-83
2022/03/13 05:27:56;;;;;;;20.02;11.57;;;8.10;99.90;;;;;;5112983;27;20035;-83
2022/03/13 05:30:21;;;;;;;21.00;12.30;;;7.70;99.90;;;;;;5102331;22;20090;-82
2022/03/13 05:32:48;;;;;;;20.55;12.35;;;7.70;99.90;;;;;;5078222;22;20044;-83
2022/03/13 05:35:14;;;;;;;20.48;12.43;;;8.20;99.90;;;;;;5069934;28;20426;-82
2022/03/13 05:37:40;;;;;;;19.73;11.52;;;7.70;99.90;;;;;;5070424;28;20048;-82
2022/03/13 05:40:06;;;;;;;21.90;12.30;;;7.70;99.90;;;;;;5087222;28;20044;-82
2022/03/13 05:42:32;;;;;;;23.63;12.93;;;7.70;99.90;;;;;;5070004;28;20036;-83
2022/03/13 05:44:58;;;;;;;20.63;12.57;;;7.70;99.90;;;;;;5096862;22;20070;-83
2022/03/13 05:47:23;;;;;;;18.77;12.05;;;8.30;99.90;;;;;;5072875;28;20105;-83
2022/03/13 05:49:49;;;;;;;22.25;12.85;;;7.70;99.90;;;;;;5083748;22;20051;-82
2022/03/13 05:52:16;;;;;;;19.58;12.00;;;7.40;99.90;;;;;;5129486;27;20152;-82
2022/03/13 05:54:43;;;;;;;20.40;12.02;;;7.60;99.90;;;;;;5097223;22;20087;-83
2022/03/13 05:57:10;;;;;;;19.55;11.77;;;8.00;99.90;;;;;;5070074;28;20483;-83
2022/03/13 05:59:37;;;;;;;21.52;12.30;;;8.00;99.90;;;;;;5075071;22;20052;-82
2022/03/13 06:02:04;;;;;;;18.70;11.63;;;7.60;99.90;;;;;;5089443;22;20240;-80
2022/03/13 06:04:39;;;;;;;20.08;11.63;;;8.10;99.90;;;;;;5077943;22;20045;-81
2022/03/13 06:07:05;;;;;;;20.42;11.93;;;8.50;99.90;;;;;;5063042;28;20094;-80
2022/03/13 06:12:00;;;;;;;22.23;12.23;;;7.50;99.90;;;;;;5154070;22;20042;-80
2022/03/13 06:14:26;;;;;;;21.58;12.43;;;7.80;99.90;;;;;;5079760;22;20095;-80
2022/03/13 06:16:52;;;;;;;18.30;11.55;;;8.40;99.90;;;;;;5073619;22;20559;-80
2022/03/13 06:19:19;;;;;;;18.67;12.10;;;8.30;99.90;;;;;;5082757;22;20047;-80
2022/03/13 06:21:46;;;;;;;20.23;12.25;;;8.40;99.90;;;;;;5080525;22;20060;-81
2022/03/13 06:24:12;;;;;;;20.85;11.55;;;8.40;99.90;;;;;;5098447;22;20052;-80
2022/03/13 06:26:38;;;;;;;20.15;11.50;;;7.40;99.90;;;;;;5084473;22;20055;-81
2022/03/13 06:29:04;;;;;;;22.42;12.50;;;8.20;99.90;;;;;;5095263;22;20135;-80
2022/03/13 06:31:36;;;;;;;19.00;11.77;;;7.40;99.90;;;;;;5055775;22;20068;-81
2022/03/13 06:34:02;;;;;;;21.60;12.27;;;7.40;99.90;;;;;;5077097;22;20041;-80
2022/03/13 06:36:28;;;;;;;19.92;11.93;;;8.20;99.90;;;;;;5105865;27;20054;-81
2022/03/13 06:38:55;;;;;;;21.60;12.90;;;7.30;99.90;;;;;;5114217;22;20040;-81
2022/03/13 06:41:21;;;;;;;21.42;12.73;;;7.20;99.90;;;;;;5097196;22;20052;-81
2022/03/13 06:43:47;;;;;;;24.02;12.07;;;8.40;99.90;;;;;;5085549;22;20087;-79
2022/03/13 06:46:13;;;;;;;24.23;12.90;;;7.30;99.90;;;;;;5089686;22;20071;-78
2022/03/13 06:48:40;;;;;;;20.13;11.85;;;7.20;99.90;;;;;;5076627;22;20040;-79
2022/03/13 06:51:06;;;;;;;22.90;12.38;;;7.90;99.90;;;;;;5094931;22;20068;-83
2022/03/13 06:53:34;;;;;;;21.83;12.52;;;8.10;99.90;;;;;;5077622;22;20059;-83
2022/03/13 06:56:00;;;;;;;23.65;12.25;;;7.50;99.90;;;;;;5070616;28;20044;-83
2022/03/13 06:58:25;;;;;;;20.55;12.50;;;7.60;99.90;;;;;;5069449;28;20054;-83
2022/03/13 07:00:52;;;;;;;23.02;12.32;;;7.70;99.90;;;;;;5081914;22;20036;-83
2022/03/13 07:03:17;;;;;;;18.55;11.52;;;7.60;99.90;;;;;;5110493;27;20054;-82
2022/03/13 07:05:43;;;;;;;21.02;12.85;;;7.30;99.90;;;;;;5078823;22;20057;-83
2022/03/13 07:08:09;;;;;;;21.02;12.15;;;8.00;99.90;;;;;;5076995;22;20048;-82
2022/03/13 07:10:34;;;;;;;21.85;12.52;;;7.20;99.90;;;;;;5116832;22;20052;-83
2022/03/13 07:13:00;;;;;;;21.27;12.52;;;7.30;99.90;;;;;;5107427;28;20054;-82
2022/03/13 07:15:27;;;;;;;20.30;11.65;;;7.20;99.90;;;;;;5106881;28;20035;-82
2022/03/13 07:17:53;;;;;;;19.63;11.68;;;6.90;99.90;;;;;;5117441;22;20035;-83
2022/03/13 07:20:19;;;;;;;19.38;11.75;;;7.60;99.90;;;;;;5109707;27;20039;-82
2022/03/13 07:22:46;;;;;;;18.23;11.15;;;7.30;99.90;;;;;;5114195;22;20045;-83
2022/03/13 07:25:13;;;;;;;17.40;11.45;;;7.40;99.90;;;;;;5068202;28;20044;-82
2022/03/13 07:27:39;;;;;;;20.08;12.43;;;7.40;99.90;;;;;;5076525;22;20047;-82
2022/03/13 07:30:13;;;;;;;19.08;11.57;;;7.50;99.90;;;;;;5072288;22;21154;-83
2022/03/13 07:32:40;;;;;;;19.08;11.60;;;7.40;99.90;;;;;;5064707;28;20044;-83
2022/03/13 07:35:09;;;;;;;20.63;11.82;;;7.40;99.90;;;;;;5048726;28;20066;-83
2022/03/13 07:37:35;;;;;;;16.85;11.00;;;7.40;99.90;;;;;;5079622;22;20056;-82
2022/03/13 07:40:01;;;;;;;16.15;11.13;;;7.30;99.90;;;;;;5075647;22;20070;-83
2022/03/13 07:42:27;;;;;;;18.38;11.23;;;7.70;99.90;;;;;;5072104;22;20052;-82
2022/03/13 07:44:52;;;;;;;20.63;11.50;;;7.40;99.90;;;;;;5064982;28;20059;-83
2022/03/13 07:47:18;;;;;;;18.92;11.13;;;7.40;99.90;;;;;;5079562;22;20116;-82
2022/03/13 07:49:44;;;;;;;17.98;11.13;;;7.40;99.90;;;;;;5074371;22;20134;-82
2022/03/13 07:52:10;;;;;;;18.70;11.13;;;7.70;99.90;;;;;;5084510;28;20090;-82
2022/03/13 07:54:39;;;;;;;16.52;11.30;;;7.90;99.90;;;;;;5081588;22;20052;-82
2022/03/13 07:57:05;;;;;;;19.58;11.77;;;8.30;99.90;;;;;;5064696;28;20063;-83
2022/03/13 08:02:04;;;;;;;17.50;10.40;;;7.60;99.90;;;;;;5126110;22;20071;-80
2022/03/13 08:04:34;;;;;;;17.92;10.57;;;7.60;99.90;;;;;;5087883;22;20116;-82
2022/03/13 08:07:00;;;;;;;18.90;10.93;;;8.70;99.90;;;;;;5091352;22;20075;-81
2022/03/13 08:09:25;;;;;;;18.05;10.93;;;8.60;99.90;;;;;;5111254;22;20074;-81
2022/03/13 08:11:53;;;;;;;17.00;10.45;;;8.60;99.90;;;;;;5112166;22;20057;-81
2022/03/13 08:14:19;;;;;;;19.90;10.60;;;8.60;99.90;;;;;;5118726;22;20493;-81
2022/03/13 08:16:57;;;;;;;17.25;10.80;;;7.80;99.90;;;;;;5120002;22;20055;-81
2022/03/13 08:19:23;;;;;;;18.38;10.38;;;7.90;99.90;;;;;;5015448;28;20063;-84
2022/03/13 08:21:49;;;;;;;16.95;10.60;;;7.90;99.90;;;;;;5034681;28;20041;-83
2022/03/13 08:24:17;;;;;;;19.33;10.90;;;8.00;99.90;;;;;;5018617;28;20037;-83
2022/03/13 08:26:43;;;;;;;19.52;11.20;;;8.00;99.90;;;;;;5001600;28;20485;-83
2022/03/13 08:29:10;;;;;;;16.48;10.25;;;8.10;99.90;;;;;;5018438;28;20083;-83
2022/03/13 08:31:37;;;;;;;17.45;11.25;;;8.60;99.90;;;;;;5036014;28;20081;-83
2022/03/13 08:34:10;;;;;;;18.77;11.00;;;8.30;99.90;;;;;;5036309;28;20056;-83
2022/03/13 08:36:37;;;;;;;17.15;10.77;;;8.40;99.90;;;;;;5035627;28;20046;-83
2022/03/13 08:39:04;;;;;;;17.60;10.60;;;8.50;99.90;;;;;;5001565;28;20088;-83
2022/03/13 08:41:29;;;;;;;16.38;10.32;;;8.60;99.90;;;;;;5035349;28;20403;-83
2022/03/13 08:43:55;;;;;;;17.17;10.85;;;8.80;99.90;;;;;;5016696;28;20128;-83
2022/03/13 08:46:21;;;;;;;18.40;10.65;;;9.20;99.90;;;;;;5035279;28;20102;-83
2022/03/13 08:48:47;;;;;;;18.85;10.85;;;8.90;99.90;;;;;;5017535;28;20115;-84
2022/03/13 08:51:14;;;;;;;16.33;10.30;;;9.00;99.90;;;;;;5016991;28;20049;-83
2022/03/13 08:53:40;;;;;;;17.40;10.48;;;9.30;99.90;;;;;;5034597;28;20400;-83
2022/03/13 08:56:06;;;;;;;18.65;10.68;;;9.30;99.90;;;;;;5034995;28;20124;-83
2022/03/13 08:58:31;;;;;;;17.88;10.40;;;9.00;99.90;;;;;;5034810;28;20429;-83
2022/03/13 09:00:57;;;;;;;17.20;10.50;;;9.10;99.90;;;;;;5034665;28;20392;-83
2022/03/13 09:03:23;;;;;;;16.88;10.63;;;9.20;99.90;;;;;;5032951;28;20072;-83
2022/03/13 09:05:49;;;;;;;18.85;10.95;;;9.30;99.90;;;;;;5034469;28;20049;-83
2022/03/13 09:08:15;;;;;;;17.73;10.23;;;9.50;99.90;;;;;;5033067;28;20080;-83
2022/03/13 09:10:41;;;;;;;14.60;10.60;;;9.60;99.90;;;;;;5034469;28;20119;-83
2022/03/13 09:13:07;;;;;;;17.35;10.40;;;9.70;99.90;;;;;;5017203;28;20038;-83
2022/03/13 09:15:33;;;;;;;18.02;10.73;;;9.90;99.90;;;;;;5034021;28;20049;-83
2022/03/13 09:18:02;;;;;;;16.75;9.77;;;10.30;99.90;;;;;;5034000;28;20049;-83
2022/03/13 09:20:28;;;;;;;16.38;10.32;;;9.90;99.90;;;;;;5016734;28;20107;-82
2022/03/13 09:22:55;;;;;;;17.83;10.52;;;10.00;99.90;;;;;;5034114;28;20412;-83
2022/03/13 09:25:21;;;;;;;16.80;10.75;;;10.20;99.90;;;;;;5033671;28;20061;-83
2022/03/13 09:27:48;;;;;;;16.48;9.85;;;10.20;99.90;;;;;;4999583;28;20041;-83
2022/03/13 09:30:14;;;;;;;17.10;9.60;;;10.70;99.90;;;;;;5034242;28;20049;-83
2022/03/13 09:32:42;;;;;;;17.33;9.95;;;10.50;99.90;;;;;;5016485;28;20084;-83
2022/03/13 09:35:08;;;;;;;16.67;10.10;;;11.10;99.90;;;;;;5019887;28;20045;-83
2022/03/13 09:37:33;;;;;;;18.45;10.43;;;10.70;99.90;;;;;;5003235;28;20129;-83
2022/03/13 09:39:59;;;;;;;16.65;10.00;;;11.20;99.90;;;;;;5019853;28;20187;-83
2022/03/13 09:42:25;;;;;;;16.92;10.13;;;11.40;99.90;;;;;;5037546;28;20399;-83
2022/03/13 09:44:50;;;;;;;16.45;9.85;;;11.40;99.90;;;;;;5019382;28;20077;-83
2022/03/13 09:47:16;;;;;;;17.73;10.48;;;11.70;99.90;;;;;;5037012;28;20037;-83
2022/03/13 09:49:42;;;;;;;17.05;10.82;;;12.00;99.90;;;;;;5019220;28;20045;-83
2022/03/13 09:52:09;;;;;;;15.95;9.68;;;12.10;99.90;;;;;;5019050;28;20041;-84
2022/03/13 09:54:35;;;;;;;17.80;11.13;;;12.10;99.90;;;;;;5003110;28;20052;-83
2022/03/13 09:57:04;;;;;;;17.95;10.95;;;12.20;99.90;;;;;;5019840;28;20038;-84
2022/03/13 09:59:31;;;;;;;15.32;10.80;;;12.20;99.90;;;;;;5037709;28;20128;-83
2022/03/13 10:01:57;;;;;;;17.92;10.32;;;12.20;99.90;;;;;;5037275;28;20124;-83
2022/03/13 10:04:23;;;;;;;15.98;10.02;;;12.20;99.90;;;;;;5018999;28;20412;-83
2022/03/13 10:07:10;;;;;;;15.02;9.75;;;12.80;99.90;;;;;;5002338;28;20041;-83
2022/03/13 10:09:37;;;;;;;21.13;10.63;;;12.60;99.90;;;;;;5018518;28;20041;-83
2022/03/13 10:12:12;;;;;;;17.15;10.65;;;13.00;99.90;;;;;;5018718;28;20412;-84
2022/03/13 10:14:57;;;;;;;15.80;9.83;;;12.90;99.90;;;;;;5018986;28;20407;-84
2022/03/13 10:17:32;;;;;;;18.63;10.85;;;13.10;99.90;;;;;;5002489;28;20299;-84
2022/03/13 10:20:30;;;;;;;15.52;9.70;;;13.10;99.90;;;;;;5018618;28;20427;-84
2022/03/13 10:22:59;;;;;;;18.02;11.10;;;13.20;99.90;;;;;;4993415;28;20058;-84
2022/03/13 10:25:35;;;;;;;17.52;10.93;;;13.20;99.90;;;;;;4994267;28;20050;-84
2022/03/13 10:28:22;;;;;;;16.15;10.25;;;13.30;99.90;;;;;;4974546;28;20072;-84
2022/03/13 10:31:05;;;;;;;16.50;10.20;;;13.40;99.90;;;;;;4978327;28;20046;-83
2022/03/13 10:33:46;;;;;;;19.00;10.32;;;13.50;99.90;;;;;;4994585;28;20054;-84
2022/03/13 10:36:21;;;;;;;18.55;10.98;;;13.60;99.90;;;;;;4976663;28;20137;-84
2022/03/13 10:38:48;;;;;;;18.02;10.52;;;13.50;99.90;;;;;;4959290;28;20054;-84
2022/03/13 10:41:15;;;;;;;14.35;10.02;;;13.60;99.90;;;;;;4995360;28;20046;-83
2022/03/13 10:43:46;;;;;;;17.20;10.95;;;13.70;99.90;;;;;;4993196;28;20054;-84
2022/03/13 10:46:36;;;;;;;17.85;10.82;;;13.90;99.90;;;;;;5004052;28;20129;-84
2022/03/13 10:49:04;;;;;;;18.52;10.45;;;14.00;99.90;;;;;;5003080;28;20050;-83
2022/03/13 10:51:40;;;;;;;17.23;10.63;;;14.30;99.90;;;;;;4990910;28;20139;-83
2022/03/13 10:54:06;;;;;;;18.70;10.52;;;14.20;99.90;;;;;;5001294;28;20146;-83
2022/03/13 10:56:32;;;;;;;16.15;10.35;;;14.30;99.90;;;;;;4998655;28;20054;-83
2022/03/13 10:58:59;;;;;;;16.98;10.82;;;14.40;99.90;;;;;;5005995;28;20076;-84
2022/03/13 11:01:31;;;;;;;17.23;11.02;;;14.50;99.90;;;;;;5035025;28;20050;-83
2022/03/13 11:04:06;;;;;;;16.58;10.63;;;14.30;99.90;;;;;;5017976;28;20121;-83
2022/03/13 11:06:32;;;;;;;17.30;11.02;;;14.10;99.90;;;;;;5021313;28;20041;-83
2022/03/13 11:08:59;;;;;;;15.10;9.98;;;13.90;99.90;;;;;;5034744;28;20068;-83
2022/03/13 11:11:28;;;;;;;19.30;11.10;;;13.90;99.90;;;;;;5018081;28;20415;-83
2022/03/13 11:13:57;;;;;;;19.10;11.50;;;13.90;99.90;;;;;;5017477;28;20442;-83
2022/03/13 11:16:28;;;;;;;16.65;10.45;;;13.90;99.90;;;;;;5017560;28;20060;-84
2022/03/13 11:18:55;;;;;;;18.42;11.23;;;14.10;99.90;;;;;;5033366;28;20061;-83
2022/03/13 11:21:22;;;;;;;18.00;11.05;;;14.70;99.90;;;;;;5017796;28;20049;-83
2022/03/13 11:23:54;;;;;;;17.33;10.68;;;14.60;99.90;;;;;;5034720;28;20041;-83
2022/03/13 11:26:23;;;;;;;16.13;10.73;;;14.90;99.90;;;;;;5035452;28;20121;-83
2022/03/13 11:28:49;;;;;;;18.48;11.60;;;14.90;99.90;;;;;;5035235;28;20037;-83
2022/03/13 11:31:34;;;;;;;17.20;11.23;;;14.80;99.90;;;;;;5034542;28;20469;-84
2022/03/13 11:34:15;;;;;;;15.23;10.87;;;14.80;99.90;;;;;;5089848;22;20505;-84
2022/03/13 11:36:47;;;;;;;16.00;10.48;;;15.00;99.90;;;;;;5112818;27;20129;-83
2022/03/13 11:39:27;;;;;;;16.27;11.35;;;14.90;99.90;;;;;;5116758;27;20054;-84
2022/03/13 11:41:53;;;;;;;15.05;9.57;;;14.80;99.90;;;;;;5100461;27;20035;-84
2022/03/13 11:44:21;;;;;;;16.13;10.27;;;14.60;99.90;;;;;;5116180;28;20071;-83
2022/03/13 11:46:49;;;;;;;15.10;10.65;;;14.80;99.90;;;;;;5098091;28;20050;-83
2022/03/13 11:49:30;;;;;;;15.45;10.30;;;14.70;99.90;;;;;;5097826;28;20066;-83
2022/03/13 11:52:17;;;;;;;16.30;10.43;;;14.50;99.90;;;;;;5080776;28;20047;-83
2022/03/13 11:55:00;;;;;;;18.58;10.27;;;14.70;99.90;;;;;;5080879;28;20097;-83
2022/03/13 11:57:44;;;;;;;15.00;10.23;;;14.80;99.90;;;;;;5096912;28;20055;-83
2022/03/13 12:00:13;;;;;;;16.13;9.85;;;14.80;99.90;;;;;;5080883;28;20039;-83
2022/03/13 12:02:45;;;;;;;14.80;9.65;;;15.10;99.90;;;;;;5080418;28;20108;-83
2022/03/13 12:05:26;;;;;;;16.00;10.40;;;15.30;99.90;;;;;;5097732;28;20047;-83
2022/03/13 12:07:56;;;;;;;16.60;10.52;;;14.90;99.90;;;;;;5098080;28;20085;-83
2022/03/13 12:10:48;;;;;;;15.35;9.95;;;14.90;99.90;;;;;;5096987;28;20054;-84
2022/03/13 12:13:16;;;;;;;14.85;9.82;;;15.00;99.90;;;;;;5113312;22;20126;-83
2022/03/13 12:15:44;;;;;;;17.65;10.13;;;15.30;99.90;;;;;;5100766;27;20058;-83
2022/03/13 12:18:32;;;;;;;18.05;9.98;;;15.60;99.90;;;;;;5118083;27;20043;-83
2022/03/13 12:21:07;;;;;;;13.30;9.10;;;16.00;99.90;;;;;;5116990;27;20043;-83
2022/03/13 12:23:36;;;;;;;16.48;10.45;;;16.10;97.10;;;;;;5117235;27;20051;-83
2022/03/13 12:26:13;;;;;;;13.82;9.30;;;16.10;98.80;;;;;;5100071;27;20389;-83
2022/03/13 12:28:39;;;;;;;15.20;9.63;;;16.20;96.60;;;;;;5117083;27;20130;-84
2022/03/13 12:31:05;;;;;;;16.88;9.80;;;16.30;98.30;;;;;;5100412;27;20103;-83
2022/03/13 12:33:32;;;;;;;13.85;9.95;;;16.60;98.10;;;;;;5117406;27;20035;-83
2022/03/13 12:36:01;;;;;;;12.73;9.13;;;16.80;97.80;;;;;;5117247;28;20039;-83
2022/03/13 12:38:30;;;;;;;13.88;8.75;;;16.90;96.50;;;;;;5099959;28;20047;-84
2022/03/13 12:40:56;;;;;;;12.98;9.07;;;17.30;96.80;;;;;;5117483;28;20131;-83
2022/03/13 12:43:23;;;;;;;14.30;8.60;;;17.10;95.20;;;;;;5118095;27;20097;-83
2022/03/13 12:45:52;;;;;;;11.95;8.68;;;17.20;93.80;;;;;;5100349;28;20058;-83
2022/03/13 12:48:18;;;;;;;12.70;8.93;;;17.20;93.40;;;;;;5099865;28;20481;-83
2022/03/13 12:50:47;;;;;;;14.30;8.63;;;17.40;93.00;;;;;;5118667;28;20125;-83